createdAt,value
2019-03-25T00:03:47.596Z,101654.63
2019-03-25T00:09:04.493Z,101656.78
2019-03-25T00:13:58.945Z,101643.98
2019-03-25T00:19:03.613Z,101652.42
2019-03-25T00:24:08.526Z,101642.78
2019-03-25T00:29:13.106Z,101640.02
2019-03-25T00:34:17.861Z,101643.41
2019-03-25T00:39:22.527Z,101641.26
2019-03-25T00:44:27.184Z,101638.70
2019-03-25T00:49:31.765Z,101628.53
2019-03-25T00:54:36.635Z,101628.05
2019-03-25T00:59:41.375Z,101631.97
2019-03-25T01:04:46.210Z,101625.89
2019-03-25T01:09:51.050Z,101621.36
2019-03-25T01:14:55.805Z,101617.84
2019-03-25T01:20:00.556Z,101602.74
2019-03-25T01:25:05.970Z,101606.96
2019-03-25T01:30:11.004Z,101606.82
2019-03-25T01:35:16.253Z,101598.27
2019-03-25T01:40:21.045Z,101603.91
2019-03-25T01:45:25.821Z,101604.64
2019-03-25T01:50:30.570Z,101605.19
2019-03-25T01:55:35.160Z,101601.36
2019-03-25T02:00:39.917Z,101590.48
2019-03-25T02:05:44.705Z,101597.79
2019-03-25T02:10:49.375Z,101592.02
2019-03-25T02:15:54.010Z,101590.66
2019-03-25T02:20:58.596Z,101585.84
2019-03-25T02:26:03.316Z,101578.31
2019-03-25T02:31:08.131Z,101580.13
2019-03-25T02:36:12.861Z,101576.55
2019-03-25T02:41:19.112Z,101572.98
2019-03-25T02:46:26.505Z,101571.66
2019-03-25T02:51:31.136Z,101567.25
2019-03-25T02:56:35.794Z,101571.66
2019-03-25T03:01:40.607Z,101562.41
2019-03-25T03:06:45.357Z,101564.33
2019-03-25T03:11:50.014Z,101565.20
2019-03-25T03:16:54.738Z,101571.21
2019-03-25T03:21:59.498Z,101564.76
2019-03-25T03:27:04.226Z,101565.11
2019-03-25T03:32:08.895Z,101557.18
2019-03-25T03:37:13.695Z,101549.84
2019-03-25T03:42:18.666Z,101548.77
2019-03-25T03:47:23.412Z,101537.07
2019-03-25T03:52:28.190Z,101537.07
2019-03-25T03:57:32.989Z,101522.53
2019-03-25T04:02:37.734Z,101519.84
2019-03-25T04:07:42.638Z,101542.98
2019-03-25T04:12:47.367Z,101539.50
2019-03-25T04:17:52.264Z,101542.70
2019-03-25T04:22:57.345Z,101556.44
2019-03-25T04:28:02.025Z,101551.69
2019-03-25T04:33:06.887Z,101547.59
2019-03-25T04:38:11.476Z,101555.91
2019-03-25T04:43:16.381Z,101575.47
2019-03-25T04:48:21.011Z,101579.97
2019-03-25T04:53:25.837Z,101568.43
2019-03-25T04:58:30.599Z,101567.89
2019-03-25T05:03:35.520Z,101575.19
2019-03-25T05:08:40.285Z,101580.13
2019-03-25T05:13:44.913Z,101569.61
2019-03-25T05:18:49.671Z,101574.79
2019-03-25T05:23:54.330Z,101582.91
2019-03-25T05:28:59.056Z,101590.83
2019-03-25T05:34:03.796Z,101581.50
2019-03-25T05:39:09.297Z,101592.45
2019-03-25T05:44:14.611Z,101587.01
2019-03-25T05:49:19.566Z,101599.98
2019-03-25T05:54:24.353Z,101598.63
2019-03-25T05:59:29.248Z,101590.89
2019-03-25T06:04:36.600Z,101595.20
2019-03-25T06:09:41.292Z,101601.30
2019-03-25T06:14:46.041Z,101605.66
2019-03-25T06:19:50.780Z,101609.97
2019-03-25T06:24:55.525Z,101606.01
2019-03-25T06:30:00.351Z,101632.10
2019-03-25T06:35:05.622Z,101645.12
2019-03-25T06:40:10.382Z,101642.97
2019-03-25T06:45:16.102Z,101636.09
2019-03-25T06:50:20.737Z,101635.98
2019-03-25T06:55:25.718Z,101636.63
2019-03-25T07:00:30.550Z,101647.59
2019-03-25T07:05:35.516Z,101644.55
2019-03-25T07:10:40.564Z,101645.83
2019-03-25T07:15:45.605Z,101662.52
2019-03-25T07:20:51.975Z,101668.91
2019-03-25T07:25:57.102Z,101656.98
2019-03-25T07:31:01.880Z,101672.31
2019-03-25T07:36:06.996Z,101668.52
2019-03-25T07:41:11.857Z,101663.34
2019-03-25T07:46:17.809Z,101679.44
2019-03-25T07:51:22.596Z,101697.30
2019-03-25T07:56:28.684Z,101698.13
2019-03-25T08:01:36.225Z,101697.69
2019-03-25T08:06:40.870Z,101694.67
2019-03-25T08:11:45.659Z,101701.92
2019-03-25T08:16:50.445Z,101694.40
2019-03-25T08:21:55.246Z,101698.59
2019-03-25T08:26:59.866Z,101705.01
2019-03-25T08:32:04.812Z,101730.39
2019-03-25T08:37:09.581Z,101735.70
2019-03-25T08:42:14.737Z,101744.80
2019-03-25T08:47:19.503Z,101747.45
2019-03-25T08:52:24.166Z,101767.27
2019-03-25T08:57:28.925Z,101770.56
2019-03-25T09:02:33.849Z,101759.81
2019-03-25T09:07:38.798Z,101773.22
2019-03-25T09:12:44.517Z,101774.45
2019-03-25T09:17:49.265Z,101783.00
2019-03-25T09:22:53.996Z,101783.00
2019-03-25T09:27:59.790Z,101811.09
2019-03-25T09:33:04.649Z,101801.67
2019-03-25T09:38:09.725Z,101810.92
2019-03-25T09:43:14.561Z,101814.59
2019-03-25T09:48:20.410Z,101793.27
2019-03-25T09:53:25.416Z,101796.73
2019-03-25T09:58:36.146Z,101797.66
2019-03-25T10:03:36.645Z,101807.78
2019-03-25T10:08:41.445Z,101815.86
2019-03-25T10:13:46.530Z,101794.25
2019-03-25T10:18:51.200Z,101803.48
2019-03-25T10:23:56.050Z,101798.58
2019-03-25T10:29:00.981Z,101745.46
2019-03-25T10:34:06.190Z,101809.20
2019-03-25T10:39:10.884Z,101790.98
2019-03-25T10:44:15.887Z,101813.86
2019-03-25T10:49:24.617Z,101810.34
2019-03-25T10:54:30.430Z,101801.66
2019-03-25T10:59:35.433Z,101743.89
2019-03-25T11:04:40.108Z,101788.30
2019-03-25T11:09:45.215Z,101797.48
2019-03-25T11:14:49.915Z,101776.69
2019-03-25T11:19:54.654Z,101782.29
2019-03-25T11:24:59.715Z,101787.44
2019-03-25T11:30:07.992Z,101809.48
2019-03-25T11:35:13.115Z,101790.15
2019-03-25T11:40:18.068Z,101784.27
2019-03-25T11:45:22.913Z,101794.70
2019-03-25T11:50:28.620Z,101773.26
2019-03-25T11:55:33.420Z,101776.41
2019-03-25T12:00:38.211Z,101795.59
2019-03-25T12:05:42.949Z,101756.06
2019-03-25T12:10:47.753Z,101776.34
2019-03-25T12:15:52.526Z,101801.78
2019-03-25T12:20:57.180Z,101774.39
2019-03-25T12:26:01.965Z,101766.20
2019-03-25T12:31:06.799Z,101754.84
2019-03-25T12:36:11.606Z,101772.55
2019-03-25T12:41:16.244Z,101773.41
2019-03-25T12:46:21.191Z,101783.96
2019-03-25T12:51:26.240Z,101757.23
2019-03-25T12:56:31.052Z,101738.50
2019-03-25T13:01:35.754Z,101754.77
2019-03-25T13:06:40.885Z,101754.08
2019-03-25T13:11:45.575Z,101754.23
2019-03-25T13:16:50.471Z,101753.44
2019-03-25T13:21:55.205Z,101737.45
2019-03-25T13:27:00.010Z,101763.62
2019-03-25T13:32:04.867Z,101767.41
2019-03-25T13:37:09.645Z,101764.66
2019-03-25T13:42:15.481Z,101752.85
2019-03-25T13:47:20.298Z,101751.92
2019-03-25T13:52:26.224Z,101754.64
2019-03-25T13:57:30.853Z,101722.33
2019-03-25T14:02:35.912Z,101739.87
2019-03-25T14:07:40.863Z,101747.77
2019-03-25T14:12:48.675Z,101730.18
2019-03-25T14:17:53.566Z,101732.99
2019-03-25T14:22:58.671Z,101728.72
2019-03-25T14:28:03.428Z,101724.31
2019-03-25T14:33:08.339Z,101728.34
2019-03-25T14:38:13.096Z,101725.56
2019-03-25T14:43:17.842Z,101660.39
2019-03-25T14:48:22.452Z,101718.21
2019-03-25T14:53:27.221Z,101716.84
2019-03-25T14:58:32.070Z,101724.30
2019-03-25T15:03:38.833Z,101724.77
2019-03-25T15:08:43.525Z,101709.23
2019-03-25T15:13:48.242Z,101710.81
2019-03-25T15:18:52.931Z,101716.15
2019-03-25T15:23:57.882Z,101717.06
2019-03-25T15:29:02.829Z,101716.59
2019-03-25T15:34:07.977Z,101726.09
2019-03-25T15:39:12.981Z,101713.53
2019-03-25T15:44:17.572Z,101720.23
2019-03-25T15:49:22.465Z,101698.87
2019-03-25T15:54:27.981Z,101698.87
2019-03-25T15:59:32.968Z,101716.36
2019-03-25T16:04:37.556Z,101726.30
2019-03-25T16:09:42.229Z,101724.17
2019-03-25T16:14:47.146Z,101725.98
2019-03-25T16:19:52.013Z,101720.83
2019-03-25T16:24:57.091Z,101722.67
2019-03-25T16:30:02.192Z,101719.36
2019-03-25T16:35:07.145Z,101732.24
2019-03-25T16:40:12.848Z,101723.34
2019-03-25T16:45:17.440Z,101724.61
2019-03-25T16:50:22.485Z,101729.22
2019-03-25T16:55:28.357Z,101720.58
2019-03-25T17:00:33.145Z,101717.77
2019-03-25T17:05:37.782Z,101722.30
2019-03-25T17:10:44.726Z,101726.28
2019-03-25T17:15:49.402Z,101731.80
2019-03-25T17:20:54.036Z,101722.25
2019-03-25T17:25:59.279Z,101725.60
2019-03-25T17:31:06.220Z,101728.48
2019-03-25T17:36:10.985Z,101722.09
2019-03-25T17:41:15.660Z,101730.55
2019-03-25T17:46:20.305Z,101732.05
2019-03-25T17:51:25.448Z,101735.28
2019-03-25T17:56:31.245Z,101749.19
2019-03-25T18:01:37.577Z,101741.52
2019-03-25T18:06:42.367Z,101729.27
2019-03-25T18:11:46.971Z,101734.63
2019-03-25T18:16:51.775Z,101718.06
2019-03-25T18:21:56.560Z,101714.38
2019-03-25T18:27:01.326Z,101739.26
2019-03-25T18:32:05.985Z,101739.52
2019-03-25T18:37:10.651Z,101731.67
2019-03-25T18:42:15.670Z,101741.72
2019-03-25T18:47:20.628Z,101739.17
2019-03-25T18:52:26.925Z,101754.81
2019-03-25T18:57:32.304Z,101748.26
2019-03-25T19:02:37.080Z,101751.46
2019-03-25T19:07:45.536Z,101742.68
2019-03-25T19:12:50.246Z,101743.38
2019-03-25T19:17:55.363Z,101754.05
2019-03-25T19:23:00.131Z,101768.20
2019-03-25T19:28:04.909Z,101765.70
2019-03-25T19:33:10.164Z,101776.37
2019-03-25T19:38:15.058Z,101776.81
2019-03-25T19:43:22.322Z,101783.08
2019-03-25T19:48:28.288Z,101782.37
2019-03-25T19:53:32.912Z,101780.66
2019-03-25T19:58:37.643Z,101781.32
2019-03-25T20:03:42.501Z,101788.10
2019-03-25T20:08:47.245Z,101772.85
2019-03-25T20:13:51.803Z,101790.51
2019-03-25T20:18:56.895Z,101784.38
2019-03-25T20:24:02.958Z,101806.00
2019-03-25T20:29:07.774Z,101816.98
2019-03-25T20:34:13.149Z,101813.86
2019-03-25T20:39:17.888Z,101806.89
2019-03-25T20:44:23.179Z,101822.78
2019-03-25T20:49:28.050Z,101807.41
2019-03-25T20:54:33.277Z,101818.86
2019-03-25T20:59:38.176Z,101828.27
2019-03-25T21:04:43.348Z,101808.37
2019-03-25T21:09:48.518Z,101826.46
2019-03-25T21:14:54.477Z,101846.20
2019-03-25T21:19:59.881Z,101837.39
2019-03-25T21:25:05.818Z,101833.55
2019-03-25T21:30:11.035Z,101847.67
2019-03-25T21:35:16.365Z,101840.67
2019-03-25T21:40:21.221Z,101831.50
2019-03-25T21:45:26.361Z,101841.14
2019-03-25T21:50:31.498Z,101843.34
2019-03-25T21:55:39.663Z,101834.06
2019-03-25T22:00:44.545Z,101827.86
2019-03-25T22:05:49.598Z,101850.28
2019-03-25T22:10:54.966Z,101848.59
2019-03-25T22:15:59.908Z,101842.83
2019-03-25T22:21:04.989Z,101849.52
2019-03-25T22:26:09.688Z,101849.52
2019-03-25T22:31:14.608Z,101837.25
2019-03-25T22:36:19.268Z,101835.49
2019-03-25T22:41:24.388Z,101856.22
2019-03-25T22:46:29.328Z,101851.89
2019-03-25T22:51:34.008Z,101849.32
2019-03-25T22:56:38.861Z,101856.36
2019-03-25T23:01:43.967Z,101853.45
2019-03-25T23:06:48.836Z,101856.61
2019-03-25T23:11:53.897Z,101854.95
2019-03-25T23:16:58.880Z,101863.81
2019-03-25T23:22:03.608Z,101856.69
2019-03-25T23:27:08.333Z,101861.33
2019-03-25T23:32:12.970Z,101852.45
2019-03-25T23:37:17.988Z,101850.02
2019-03-25T23:42:22.928Z,101855.22
2019-03-25T23:47:27.830Z,101859.31
2019-03-25T23:52:32.561Z,101852.50
2019-03-25T23:57:37.308Z,101857.70
